Darstellungsparameter: Aktuell verwendete Einstellungen:
Skalierung der Graphiken ... ?
xyx+y,   Skalierungsfaktor:      Skalierung: Modus: x, Faktor: 1
Darstellungszeitraum ... ?
Vom - - bis: - -   Zeitraum: 01.08.2021 - 01.08.2021
Min/Max/Avg-Anzeige ... ?
Zeige MMA aktuell
Zeige MMA Monat
Zeige MMA alles
Zeige --A aktuell
Zeige --A Monat
Zeige --A alles
Keine MMA-Anzeige
MMA:
Average (ber die Originaldaten)
MMA-Basis: 01.08.2021 - 01.08.2021
Quicknavigation für Darstellung... ?
Tage:      1T, 2T, 3T, 5T -1T -2T -3T -5T +1T +2T +3T +5T
Wochen: 1W, 2W, 3W -1W -2W -3W +1W +2W +3W
Monate: 1M, 3M, 6M -1M -3M -6M +1M +3M +6M
Jahre:    1J, 3J, 5J, 10J -1J -3J -5J -10J +1J +3J +5J +10J
Nutze für die Darstellung ... ?
Originaldaten oder Mittelwerte auf ...
Stundenbasis Tagesbasis Wochenbasis
Monatsbasis Jahresbasis      Datenbasis: Original-Daten
Darstellen als:
Statistik (Auto) Statistik J:M      Darstellung:

Der gewünschte Datumsbereich war nicht gültig/verfügbar und wurde korrigiert....
Das angegebene Enddatum (03.10.2023 23:59:59) liegt in der Zukunft.
Das angegebene Startdatum (03.10.2023 00:00:00) liegt in der Zukunft.


Zur Graphik,    zurück zur Übersicht aller Sensoren.
 
Tabellarische Datenbersicht: ?
 
Sensor: Nr:Datum:Temp:Abs-Feuchte:Windchill:Wind:
Aussen-T/F 1 01-08-2021 02:00:00 15.3 C 11.62 g/m*3 15.3 C 0 km/h
2 01-08-2021 02:05:00 15.4 C 11.69 g/m*3 15.4 C 0 km/h
3 01-08-2021 02:10:00 15.4 C 11.82 g/m*3 15.4 C 0 km/h
4 01-08-2021 02:15:00 15.4 C 11.82 g/m*3 15.4 C 0 km/h
5 01-08-2021 02:20:00 15.4 C 11.69 g/m*3 15.4 C 0 km/h
6 01-08-2021 02:25:00 15.4 C 11.69 g/m*3 15.4 C 0 km/h
7 01-08-2021 02:30:00 15.3 C 11.62 g/m*3 15.3 C 0 km/h
8 01-08-2021 02:35:00 15.3 C 11.62 g/m*3 15.3 C 0 km/h
9 01-08-2021 02:40:00 15.3 C 11.62 g/m*3 15.3 C 1.6 km/h
10 01-08-2021 02:45:00 15.2 C 11.55 g/m*3 15.2 C 1.6 km/h
11 01-08-2021 02:50:00 15.2 C 11.55 g/m*3 15.2 C 0 km/h
12 01-08-2021 02:55:00 15.1 C 11.48 g/m*3 15.1 C 1.6 km/h
13 01-08-2021 03:00:00 15 C 11.41 g/m*3 15 C 1.6 km/h
14 01-08-2021 03:05:00 14.9 C 11.34 g/m*3 14.9 C 1.6 km/h
15 01-08-2021 03:10:00 14.8 C 11.27 g/m*3 14.8 C 0 km/h
16 01-08-2021 03:15:00 14.7 C 11.21 g/m*3 14.7 C 0 km/h
17 01-08-2021 03:20:00 14.6 C 11.26 g/m*3 14.6 C 1.6 km/h
18 01-08-2021 03:25:00 14.5 C 11.19 g/m*3 14.5 C 1.6 km/h
19 01-08-2021 03:30:00 14.4 C 11.13 g/m*3 14.4 C 3.2 km/h
20 01-08-2021 03:35:00 14.3 C 11.06 g/m*3 14.3 C 1.6 km/h
21 01-08-2021 03:40:00 14.2 C 10.99 g/m*3 14.2 C 0 km/h
22 01-08-2021 03:45:00 14.1 C 10.92 g/m*3 14.1 C 0 km/h
23 01-08-2021 03:50:00 14.1 C 11.04 g/m*3 14.1 C 0 km/h
24 01-08-2021 03:55:00 13.9 C 10.91 g/m*3 13.9 C 0 km/h
25 01-08-2021 04:00:00 13.8 C 10.84 g/m*3 13.8 C 0 km/h
Sensor: Nr:Datum:Temp:Abs-Feuchte:Windchill:Wind:
Aussen-T/F 26 01-08-2021 04:05:00 13.8 C 10.84 g/m*3 13.8 C 0 km/h
27 01-08-2021 04:10:00 13.8 C 10.84 g/m*3 13.8 C 0 km/h
28 01-08-2021 04:15:00 13.7 C 10.89 g/m*3 13.7 C 0 km/h
29 01-08-2021 04:20:00 13.7 C 10.89 g/m*3 13.7 C 0 km/h
30 01-08-2021 04:25:00 13.7 C 10.89 g/m*3 13.7 C 0 km/h
31 01-08-2021 04:30:00 13.7 C 11.01 g/m*3 13.7 C 0 km/h
32 01-08-2021 04:35:00 13.7 C 11.01 g/m*3 13.7 C 0 km/h
33 01-08-2021 04:40:00 13.7 C 11.01 g/m*3 13.7 C 0 km/h
34 01-08-2021 04:45:00 13.7 C 11.01 g/m*3 13.7 C 0 km/h
35 01-08-2021 04:50:00 13.6 C 10.95 g/m*3 13.6 C 0 km/h
36 01-08-2021 04:55:00 13.6 C 10.95 g/m*3 13.6 C 0 km/h
37 01-08-2021 05:00:00 13.6 C 10.95 g/m*3 13.6 C 0 km/h
38 01-08-2021 05:05:00 13.6 C 10.95 g/m*3 13.6 C 0 km/h
39 01-08-2021 05:10:00 13.6 C 10.95 g/m*3 13.6 C 0 km/h
40 01-08-2021 05:15:00 13.6 C 10.95 g/m*3 13.6 C 0 km/h
41 01-08-2021 05:20:00 13.6 C 10.95 g/m*3 13.6 C 0 km/h
42 01-08-2021 05:25:00 13.6 C 10.95 g/m*3 13.6 C 0 km/h
43 01-08-2021 05:30:00 13.5 C 10.88 g/m*3 13.5 C 0 km/h
44 01-08-2021 05:35:00 13.4 C 10.81 g/m*3 13.4 C 0 km/h
45 01-08-2021 05:40:00 13.4 C 10.81 g/m*3 13.4 C 0 km/h
46 01-08-2021 05:45:00 13.4 C 10.93 g/m*3 13.4 C 1.6 km/h
47 01-08-2021 05:50:00 13.5 C 10.99 g/m*3 13.5 C 1.6 km/h
48 01-08-2021 05:55:00 13.5 C 10.99 g/m*3 13.5 C 0 km/h
49 01-08-2021 06:00:00 13.5 C 10.99 g/m*3 13.5 C 0 km/h
50 01-08-2021 06:05:00 13.4 C 10.93 g/m*3 13.4 C 3.2 km/h
Sensor: Nr:Datum:Temp:Abs-Feuchte:Windchill:Wind:
Aussen-T/F 51 01-08-2021 06:10:00 13.4 C 10.93 g/m*3 13.4 C 0 km/h
52 01-08-2021 06:15:00 13.4 C 10.93 g/m*3 13.4 C 4.8 km/h
53 01-08-2021 06:20:00 13.5 C 10.99 g/m*3 13.5 C 1.6 km/h
54 01-08-2021 06:25:00 13.5 C 10.99 g/m*3 13.5 C 0 km/h
55 01-08-2021 06:30:00 13.5 C 10.99 g/m*3 13.5 C 4.8 km/h
56 01-08-2021 06:35:00 13.6 C 11.06 g/m*3 13.6 C 1.6 km/h
57 01-08-2021 06:40:00 13.6 C 11.06 g/m*3 13.6 C 0 km/h
58 01-08-2021 06:45:00 13.6 C 11.06 g/m*3 13.6 C 4.8 km/h
59 01-08-2021 06:50:00 13.7 C 11.13 g/m*3 13.7 C 6.4 km/h
60 01-08-2021 06:55:00 13.8 C 11.2 g/m*3 13.8 C 8.1 km/h
61 01-08-2021 07:00:00 13.8 C 11.2 g/m*3 13.8 C 4.8 km/h
62 01-08-2021 07:05:00 13.9 C 11.27 g/m*3 13.9 C 4.8 km/h
63 01-08-2021 07:10:00 14 C 11.34 g/m*3 14 C 6.4 km/h
64 01-08-2021 07:15:00 14.1 C 11.41 g/m*3 14.1 C 6.4 km/h
65 01-08-2021 07:20:00 14.1 C 11.29 g/m*3 14.1 C 4.8 km/h
66 01-08-2021 07:25:00 14.2 C 11.36 g/m*3 14.2 C 1.6 km/h
67 01-08-2021 07:30:00 14.2 C 11.36 g/m*3 14.2 C 6.4 km/h
68 01-08-2021 07:35:00 14.3 C 11.43 g/m*3 14.3 C 1.6 km/h
69 01-08-2021 07:40:00 14.3 C 11.43 g/m*3 14.3 C 6.4 km/h
70 01-08-2021 07:45:00 14.4 C 11.5 g/m*3 14.4 C 6.4 km/h
71 01-08-2021 07:50:00 14.4 C 11.5 g/m*3 14.4 C 6.4 km/h
72 01-08-2021 07:55:00 14.5 C 11.44 g/m*3 14.5 C 6.4 km/h
73 01-08-2021 08:00:00 14.6 C 11.51 g/m*3 14.6 C 4.8 km/h
74 01-08-2021 08:05:00 14.7 C 11.71 g/m*3 14.7 C 3.2 km/h
75 01-08-2021 08:10:00 14.7 C 11.58 g/m*3 14.7 C 3.2 km/h
Sensor: Nr:Datum:Temp:Abs-Feuchte:Windchill:Wind:
Aussen-T/F 76 01-08-2021 08:15:00 14.8 C 11.65 g/m*3 14.8 C 3.2 km/h
77 01-08-2021 08:20:00 14.9 C 11.73 g/m*3 14.9 C 3.2 km/h
78 01-08-2021 08:25:00 14.9 C 11.73 g/m*3 14.9 C 3.2 km/h
79 01-08-2021 08:30:00 15 C 11.8 g/m*3 15 C 6.4 km/h
80 01-08-2021 08:35:00 15.1 C 11.74 g/m*3 15.1 C 3.2 km/h
81 01-08-2021 08:40:00 15.2 C 11.81 g/m*3 15.2 C 4.8 km/h
82 01-08-2021 08:45:00 15.3 C 11.88 g/m*3 15.3 C 6.4 km/h
83 01-08-2021 08:50:00 15.3 C 11.88 g/m*3 15.3 C 3.2 km/h
84 01-08-2021 08:55:00 15.4 C 11.82 g/m*3 15.4 C 4.8 km/h
85 01-08-2021 09:00:00 15.5 C 11.9 g/m*3 15.5 C 3.2 km/h
86 01-08-2021 09:05:00 15.6 C 11.97 g/m*3 15.6 C 6.4 km/h
87 01-08-2021 09:10:00 15.7 C 11.91 g/m*3 15.7 C 8.1 km/h
88 01-08-2021 09:15:00 15.8 C 11.98 g/m*3 15.8 C 4.8 km/h
89 01-08-2021 09:20:00 15.8 C 11.98 g/m*3 15.8 C 4.8 km/h
90 01-08-2021 09:25:00 15.9 C 11.92 g/m*3 15.9 C 6.4 km/h
91 01-08-2021 09:30:00 16.1 C 12.06 g/m*3 16.1 C 6.4 km/h
92 01-08-2021 09:35:00 16.2 C 12 g/m*3 16.2 C 4.8 km/h
93 01-08-2021 09:40:00 16.3 C 11.93 g/m*3 16.3 C 3.2 km/h
94 01-08-2021 09:45:00 16.4 C 12 g/m*3 16.4 C 1.6 km/h
95 01-08-2021 09:50:00 16.5 C 12.22 g/m*3 16.5 C 0 km/h
96 01-08-2021 09:55:00 16.5 C 11.94 g/m*3 16.5 C 1.6 km/h
97 01-08-2021 10:00:00 16.6 C 12.15 g/m*3 16.6 C 0 km/h
98 01-08-2021 10:05:00 16.7 C 12.08 g/m*3 16.7 C 0 km/h
99 01-08-2021 10:10:00 16.8 C 12.15 g/m*3 16.8 C 3.2 km/h
100 01-08-2021 10:15:00 17 C 12.15 g/m*3 17 C 3.2 km/h
Sensor: Nr:Datum:Temp:Abs-Feuchte:Windchill:Wind:
Aussen-T/F 101 01-08-2021 10:20:00 17.1 C 12.08 g/m*3 17.1 C 1.6 km/h
102 01-08-2021 10:25:00 17.3 C 12.23 g/m*3 17.3 C 3.2 km/h
103 01-08-2021 10:30:00 17.7 C 12.67 g/m*3 17.7 C 0 km/h
104 01-08-2021 10:35:00 17.9 C 12.21 g/m*3 17.9 C 6.4 km/h
105 01-08-2021 10:40:00 18.2 C 12.43 g/m*3 18.2 C 4.8 km/h
106 01-08-2021 10:45:00 18.3 C 12.35 g/m*3 18.3 C 4.8 km/h
107 01-08-2021 10:50:00 18.4 C 12.27 g/m*3 18.4 C 6.4 km/h
108 01-08-2021 10:55:00 18.6 C 12.1 g/m*3 18.6 C 8.1 km/h
109 01-08-2021 11:00:00 18.7 C 12.17 g/m*3 18.7 C 4.8 km/h
110 01-08-2021 11:05:00 18.7 C 12.17 g/m*3 18.7 C 6.4 km/h
111 01-08-2021 11:10:00 18.7 C 12.17 g/m*3 18.7 C 4.8 km/h
112 01-08-2021 11:15:00 18.7 C 12.81 g/m*3 18.7 C 0 km/h
113 01-08-2021 11:20:00 18.7 C 12.49 g/m*3 18.7 C 6.4 km/h
114 01-08-2021 11:25:00 18.7 C 11.85 g/m*3 18.7 C 6.4 km/h
115 01-08-2021 11:30:00 18.8 C 11.6 g/m*3 18.8 C 9.7 km/h
116 01-08-2021 11:35:00 19.1 C 11.8 g/m*3 19.1 C 6.4 km/h
117 01-08-2021 11:40:00 19.2 C 11.87 g/m*3 19.2 C 6.4 km/h
118 01-08-2021 11:45:00 19.4 C 11.85 g/m*3 19.4 C 8.1 km/h
119 01-08-2021 11:50:00 19.6 C 11.99 g/m*3 19.6 C 6.4 km/h
120 01-08-2021 11:55:00 19.7 C 11.89 g/m*3 19.7 C 8.1 km/h
121 01-08-2021 12:00:00 19.8 C 12.13 g/m*3 19.8 C 11.3 km/h
122 01-08-2021 12:05:00 19.8 C 12.13 g/m*3 19.8 C 4.8 km/h
123 01-08-2021 12:10:00 19.8 C 12.3 g/m*3 19.8 C 0 km/h
124 01-08-2021 12:15:00 19.7 C 12.23 g/m*3 19.7 C 4.8 km/h
125 01-08-2021 12:20:00 19.7 C 12.74 g/m*3 19.7 C 4.8 km/h
Sensor: Nr:Datum:Temp:Abs-Feuchte:Windchill:Wind:
Aussen-T/F 126 01-08-2021 12:25:00 19.5 C 11.75 g/m*3 19.5 C 14.5 km/h
127 01-08-2021 12:30:00 19.5 C 11.92 g/m*3 19.5 C 9.7 km/h

Legende:
   Min
   Max


Maximal/Minimal-Werte vom 01.08.2021 - 01.08.2021

Sensor Min Max Avg
Temp
(Aussen-T/F)
13.4 °C
01-08-2021  05:35:00
19.8 °C
01-08-2021  12:00:00
15.47 °C
Abs-Feuchte
(Aussen-T/F)
10.81 g/m*3
01-08-2021  05:35:00
12.81 g/m*3
01-08-2021  11:15:00
11.45 g/m*3
Windchill
(Aussen-T/F)
13.4 C
01-08-2021  05:35:00
19.8 C
01-08-2021  12:00:00
15.35 C

Die Daten stammen von einer Davis Vantage Pro 2 Wetter-Station und werden unter Linux mit der Software wview2wettercgi und aufbereitet. Alle Angaben erfolgen ohne Gewähr für ihre Vollständigkeit oder Richtigkeit.
Kontakt: Rainer Krienke krienke@uni-koblenz.de . Meine Webseiten an der Uni Koblenz oder privat.
Version: $Revision: 0.78 $